createdAt,value
2018-02-18T00:01:02.533Z,6.00
2018-02-18T00:03:30.756Z,5.57
2018-02-18T00:05:58.218Z,6.10
2018-02-18T00:08:25.674Z,5.03
2018-02-18T00:10:53.155Z,4.87
2018-02-18T00:13:20.612Z,5.40
2018-02-18T00:15:48.118Z,5.23
2018-02-18T00:18:16.406Z,6.50
2018-02-18T00:20:43.944Z,7.10
2018-02-18T00:23:12.177Z,6.00
2018-02-18T00:25:39.643Z,5.10
2018-02-18T00:28:07.113Z,6.67
2018-02-18T00:30:34.583Z,5.97
2018-02-18T00:33:02.810Z,6.20
2018-02-18T00:35:30.287Z,6.63
2018-02-18T00:37:57.751Z,5.30
2018-02-18T00:40:25.233Z,5.97
2018-02-18T00:42:53.468Z,6.50
2018-02-18T00:45:20.936Z,6.93
2018-02-18T00:47:48.428Z,6.60
2018-02-18T00:50:15.906Z,5.60
2018-02-18T00:52:43.386Z,5.90
2018-02-18T00:55:10.856Z,5.83
2018-02-18T00:57:38.315Z,6.13
2018-02-18T01:00:05.802Z,6.10
2018-02-18T01:02:33.287Z,5.30
2018-02-18T01:05:01.531Z,6.77
2018-02-18T01:07:29.009Z,6.40
2018-02-18T01:09:56.475Z,6.60
2018-02-18T01:12:24.703Z,5.93
2018-02-18T01:14:52.167Z,6.07
2018-02-18T01:17:19.626Z,6.70
2018-02-18T01:19:47.118Z,6.50
2018-02-18T01:22:14.570Z,5.23
2018-02-18T01:24:42.820Z,6.60
2018-02-18T01:27:10.279Z,6.53
2018-02-18T01:29:37.759Z,7.57
2018-02-18T01:32:05.217Z,6.33
2018-02-18T01:34:32.690Z,6.90
2018-02-18T01:37:00.924Z,6.50
2018-02-18T01:39:28.416Z,6.10
2018-02-18T01:41:55.922Z,6.97
2018-02-18T01:44:23.374Z,6.53
2018-02-18T01:46:50.839Z,5.70
2018-02-18T01:49:18.309Z,7.50
2018-02-18T01:51:45.782Z,7.00
2018-02-18T01:54:13.259Z,7.03
2018-02-18T01:56:40.731Z,6.87
2018-02-18T01:59:08.955Z,5.73
2018-02-18T02:01:36.432Z,5.20
2018-02-18T02:04:03.890Z,7.97
2018-02-18T02:06:31.362Z,6.47
2018-02-18T02:08:58.854Z,7.13
2018-02-18T02:11:26.335Z,7.10
2018-02-18T02:13:53.798Z,7.30
2018-02-18T02:16:21.277Z,6.03
2018-02-18T02:18:48.734Z,6.67
2018-02-18T02:21:16.214Z,6.47
2018-02-18T02:23:43.688Z,7.37
2018-02-18T02:26:11.922Z,7.10
2018-02-18T02:28:39.387Z,6.00
2018-02-18T02:31:06.854Z,6.37
2018-02-18T02:33:34.323Z,6.33
2018-02-18T02:36:01.803Z,5.70
2018-02-18T02:38:30.037Z,6.00
2018-02-18T02:40:57.506Z,6.50
2018-02-18T02:43:24.971Z,7.03
2018-02-18T02:45:52.443Z,6.80
2018-02-18T02:48:19.903Z,4.20
2018-02-18T02:50:48.147Z,3.80
2018-02-18T02:53:15.615Z,5.33
2018-02-18T02:55:43.096Z,3.90
2018-02-18T02:58:11.334Z,3.33
2018-02-18T03:00:38.803Z,4.95
2018-02-18T03:03:06.262Z,5.40
2018-02-18T03:05:33.752Z,5.00
2018-02-18T03:08:02.024Z,5.47
2018-02-18T03:10:29.471Z,5.10
2018-02-18T03:12:57.695Z,5.43
2018-02-18T03:15:25.162Z,5.80
2018-02-18T03:17:52.623Z,5.03
2018-02-18T03:20:20.097Z,5.10
2018-02-18T03:22:47.573Z,4.77
2018-02-18T03:25:15.047Z,6.13
2018-02-18T03:27:43.274Z,6.10
2018-02-18T03:30:10.744Z,4.97
2018-02-18T03:32:38.211Z,4.60
2018-02-18T03:35:05.711Z,5.47
2018-02-18T03:37:33.172Z,5.07
2018-02-18T03:40:00.631Z,4.93
2018-02-18T03:42:28.112Z,5.37
2018-02-18T03:44:55.595Z,6.30
2018-02-18T03:47:23.066Z,5.80
2018-02-18T03:49:50.545Z,5.87
2018-02-18T03:52:19.560Z,5.50
2018-02-18T03:54:47.023Z,5.33
2018-02-18T03:57:14.500Z,5.13
2018-02-18T03:59:41.976Z,4.97
2018-02-18T04:02:09.457Z,4.77
2018-02-18T04:04:36.924Z,4.93
2018-02-18T04:07:05.172Z,4.33
2018-02-18T04:09:32.643Z,5.20
2018-02-18T04:12:00.120Z,4.83
2018-02-18T04:14:28.364Z,4.47
2018-02-18T04:16:55.840Z,4.27
2018-02-18T04:19:23.302Z,5.60
2018-02-18T04:21:50.777Z,4.73
2018-02-18T04:24:19.017Z,4.70
2018-02-18T04:26:46.501Z,4.33
2018-02-18T04:29:14.726Z,4.17
2018-02-18T04:31:42.213Z,4.05
2018-02-18T04:34:09.685Z,4.67
2018-02-18T04:36:38.315Z,5.10
2018-02-18T04:39:05.804Z,3.80
2018-02-18T04:41:33.290Z,4.70
2018-02-18T04:44:01.533Z,4.57
2018-02-18T04:46:29.007Z,3.80
2018-02-18T04:48:56.500Z,4.90
2018-02-18T04:51:23.973Z,3.78
2018-02-18T04:53:51.442Z,4.47
2018-02-18T04:56:18.932Z,3.57
2018-02-18T04:58:47.206Z,4.20
2018-02-18T05:01:14.697Z,3.63
2018-02-18T05:03:42.942Z,4.00
2018-02-18T05:06:10.423Z,3.40
2018-02-18T05:08:38.659Z,3.90
2018-02-18T05:11:06.151Z,4.00
2018-02-18T05:13:33.632Z,3.20
2018-02-18T05:16:01.116Z,4.10
2018-02-18T05:18:28.596Z,4.12
2018-02-18T05:20:56.840Z,4.47
2018-02-18T05:23:24.310Z,3.50
2018-02-18T05:25:51.800Z,3.60
2018-02-18T05:28:19.279Z,4.50
2018-02-18T05:30:46.768Z,3.60
2018-02-18T05:33:14.246Z,3.40
2018-02-18T05:35:41.718Z,4.25
2018-02-18T05:38:09.196Z,3.78
2018-02-18T05:40:36.676Z,3.95
2018-02-18T05:43:04.932Z,3.92
2018-02-18T05:45:32.403Z,5.32
2018-02-18T05:48:00.656Z,4.03
2018-02-18T05:50:28.131Z,3.70
2018-02-18T05:52:55.618Z,4.22
2018-02-18T05:55:23.860Z,3.60
2018-02-18T05:57:51.348Z,3.53
2018-02-18T06:00:19.612Z,3.67
2018-02-18T06:02:48.249Z,3.78
2018-02-18T06:05:15.711Z,3.58
2018-02-18T06:07:43.205Z,3.80
2018-02-18T06:10:10.662Z,4.35
2018-02-18T06:12:38.138Z,4.47
2018-02-18T06:15:06.384Z,3.85
2018-02-18T06:17:33.870Z,3.92
2018-02-18T06:20:03.030Z,3.50
2018-02-18T06:22:31.284Z,2.97
2018-02-18T06:24:58.755Z,3.78
2018-02-18T06:27:26.242Z,3.85
2018-02-18T06:29:53.723Z,2.90
2018-02-18T06:32:22.251Z,2.70
2018-02-18T06:34:49.715Z,3.30
2018-02-18T06:37:17.196Z,2.92
2018-02-18T06:39:44.666Z,3.60
2018-02-18T06:42:12.913Z,2.90
2018-02-18T06:44:40.391Z,3.78
2018-02-18T06:47:07.872Z,3.42
2018-02-18T06:49:36.107Z,3.17
2018-02-18T06:52:03.609Z,3.67
2018-02-18T06:54:31.843Z,3.00
2018-02-18T06:56:59.323Z,4.55
2018-02-18T06:59:27.562Z,3.67
2018-02-18T07:01:55.049Z,3.12
2018-02-18T07:04:22.533Z,3.07
2018-02-18T07:06:50.779Z,3.00
2018-02-18T07:09:18.255Z,2.90
2018-02-18T07:11:46.510Z,3.03
2018-02-18T07:14:13.996Z,2.75
2018-02-18T07:16:42.239Z,2.83
2018-02-18T07:19:09.730Z,2.80
2018-02-18T07:21:37.988Z,3.20
2018-02-18T07:24:05.456Z,2.40
2018-02-18T07:26:33.715Z,3.00
2018-02-18T07:29:01.197Z,3.00
2018-02-18T07:31:29.437Z,3.40
2018-02-18T07:36:31.527Z,3.40
2018-02-18T07:38:59.018Z,3.28
2018-02-18T07:41:27.263Z,3.40
2018-02-18T07:43:54.748Z,4.20
2018-02-18T07:46:22.990Z,4.90
2018-02-18T07:48:50.471Z,4.55
2018-02-18T07:51:18.722Z,4.62
2018-02-18T07:53:46.208Z,5.00
2018-02-18T07:56:14.439Z,4.97
2018-02-18T07:58:41.929Z,4.12
2018-02-18T08:01:09.397Z,4.50
2018-02-18T08:03:36.892Z,4.30
2018-02-18T08:06:04.364Z,4.97
2018-02-18T08:08:31.843Z,5.40
2018-02-18T08:10:59.334Z,4.43
2018-02-18T08:13:26.811Z,4.15
2018-02-18T08:15:55.056Z,4.30
2018-02-18T08:18:23.143Z,5.00
2018-02-18T08:20:51.398Z,4.53
2018-02-18T08:23:18.876Z,3.97
2018-02-18T08:25:47.123Z,4.75
2018-02-18T08:28:14.607Z,5.20
2018-02-18T08:30:42.072Z,4.00
2018-02-18T08:33:10.319Z,4.83
2018-02-18T08:35:37.774Z,3.73
2018-02-18T08:38:05.260Z,3.70
2018-02-18T08:40:32.728Z,4.17
2018-02-18T08:43:00.978Z,3.10
2018-02-18T08:45:28.454Z,3.87
2018-02-18T08:47:55.919Z,7.20
2018-02-18T08:50:25.032Z,4.00
2018-02-18T08:52:52.508Z,4.07
2018-02-18T08:55:19.973Z,4.67
2018-02-18T08:57:47.448Z,3.93
2018-02-18T09:00:14.912Z,4.00
2018-02-18T09:02:42.385Z,3.57
2018-02-18T09:05:09.847Z,3.63
2018-02-18T09:07:37.366Z,3.80
2018-02-18T09:10:04.904Z,5.13
2018-02-18T09:12:32.349Z,5.03
2018-02-18T09:15:04.393Z,4.77
2018-02-18T09:17:31.863Z,3.83
2018-02-18T09:20:00.098Z,4.30
2018-02-18T09:22:27.572Z,4.07
2018-02-18T09:24:55.039Z,3.40
2018-02-18T09:27:22.516Z,4.03
2018-02-18T09:29:50.751Z,3.50
2018-02-18T09:32:18.218Z,2.90
2018-02-18T09:34:45.687Z,3.50
2018-02-18T09:37:13.158Z,2.57
2018-02-18T09:39:41.407Z,2.83
2018-02-18T09:42:08.884Z,3.50
2018-02-18T09:44:36.363Z,2.73
2018-02-18T09:47:04.584Z,2.80
2018-02-18T09:49:32.054Z,3.30
2018-02-18T09:51:59.521Z,2.80
2018-02-18T09:54:27.028Z,2.90
2018-02-18T09:56:54.486Z,2.83
2018-02-18T09:59:21.989Z,3.30
2018-02-18T10:01:49.449Z,3.53
2018-02-18T10:04:16.946Z,2.80
2018-02-18T10:06:45.171Z,2.60
2018-02-18T10:09:12.645Z,2.27
2018-02-18T10:11:40.108Z,3.10
2018-02-18T10:14:07.584Z,2.67
2018-02-18T10:16:35.816Z,3.00
2018-02-18T10:19:03.296Z,2.90
2018-02-18T10:21:30.757Z,3.17
2018-02-18T10:23:58.232Z,3.13
2018-02-18T10:26:25.697Z,3.50
2018-02-18T10:28:53.936Z,3.50
2018-02-18T10:31:21.461Z,2.83
2018-02-18T10:33:48.936Z,3.10
2018-02-18T10:36:16.409Z,2.90
2018-02-18T10:38:44.641Z,3.13
2018-02-18T10:41:12.858Z,2.97
2018-02-18T10:43:40.339Z,3.20
2018-02-18T10:46:07.804Z,3.13
2018-02-18T10:48:35.283Z,4.00
2018-02-18T10:51:03.524Z,4.00
2018-02-18T10:53:30.987Z,4.40
2018-02-18T10:55:58.473Z,4.37
2018-02-18T10:58:26.751Z,4.33
2018-02-18T11:00:54.995Z,4.20
2018-02-18T11:03:22.472Z,3.70
2018-02-18T11:05:49.948Z,4.97
2018-02-18T11:08:18.212Z,4.17
2018-02-18T11:10:46.457Z,4.90
2018-02-18T11:13:13.946Z,6.03
2018-02-18T11:15:42.171Z,5.07
2018-02-18T11:18:09.657Z,4.27
2018-02-18T11:20:37.151Z,4.73
2018-02-18T11:23:05.402Z,4.63
2018-02-18T11:25:32.870Z,5.60
2018-02-18T11:28:00.337Z,4.87
2018-02-18T11:30:28.571Z,5.60
2018-02-18T11:32:56.040Z,5.63
2018-02-18T11:35:23.524Z,5.53
2018-02-18T11:37:51.763Z,4.50
2018-02-18T11:40:19.251Z,6.00
2018-02-18T11:42:46.709Z,4.60
2018-02-18T11:45:14.166Z,5.50
2018-02-18T11:47:41.626Z,4.80
2018-02-18T11:50:09.095Z,5.60
2018-02-18T11:52:37.340Z,5.67
2018-02-18T11:55:04.812Z,6.20
2018-02-18T11:57:32.280Z,4.87
2018-02-18T12:00:00.543Z,6.03
2018-02-18T12:02:28.034Z,5.27
2018-02-18T12:04:56.279Z,6.13
2018-02-18T12:07:23.742Z,5.17
2018-02-18T12:09:52.012Z,5.10
2018-02-18T12:12:19.479Z,5.30
2018-02-18T12:14:46.949Z,6.37
2018-02-18T12:17:15.172Z,6.23
2018-02-18T12:19:42.643Z,4.70
2018-02-18T12:22:10.103Z,6.10
2018-02-18T12:24:38.105Z,4.73
2018-02-18T12:27:05.589Z,5.47
2018-02-18T12:29:33.812Z,3.50
2018-02-18T12:32:01.317Z,3.67
2018-02-18T12:34:29.584Z,3.73
2018-02-18T12:36:57.831Z,4.53
2018-02-18T12:39:26.128Z,3.97
2018-02-18T12:41:53.628Z,3.40
2018-02-18T12:44:21.117Z,4.63
2018-02-18T12:46:48.612Z,5.37
2018-02-18T12:49:16.088Z,4.87
2018-02-18T12:51:44.312Z,4.77
2018-02-18T12:54:11.785Z,5.03
2018-02-18T12:56:40.028Z,4.27
2018-02-18T12:59:07.508Z,5.30
2018-02-18T13:01:34.988Z,4.50
2018-02-18T13:04:02.474Z,4.30
2018-02-18T13:06:30.697Z,4.03
2018-02-18T13:08:58.168Z,4.30
2018-02-18T13:11:25.631Z,4.23
2018-02-18T13:13:53.110Z,3.07
2018-02-18T13:16:20.566Z,4.40
2018-02-18T13:18:49.516Z,4.23
2018-02-18T13:21:16.983Z,3.73
2018-02-18T13:23:45.219Z,3.70
2018-02-18T13:26:12.806Z,3.20
2018-02-18T13:28:41.126Z,3.63
2018-02-18T13:31:08.597Z,4.10
2018-02-18T13:33:36.835Z,4.23
2018-02-18T13:36:04.329Z,4.47
2018-02-18T13:38:32.913Z,4.77
2018-02-18T13:41:01.147Z,4.27
2018-02-18T13:43:28.637Z,4.40
2018-02-18T13:45:56.115Z,5.33
2018-02-18T13:48:24.352Z,5.53
2018-02-18T13:50:51.857Z,4.50
2018-02-18T13:53:19.318Z,4.43
2018-02-18T13:58:40.708Z,4.50
2018-02-18T14:01:08.170Z,4.90
2018-02-18T14:03:35.642Z,5.90
2018-02-18T14:06:03.883Z,6.90
2018-02-18T14:08:31.766Z,5.73
2018-02-18T14:10:59.234Z,6.50
2018-02-18T14:13:26.704Z,6.63
2018-02-18T14:15:54.953Z,7.10
2018-02-18T14:18:22.411Z,7.50
2018-02-18T14:20:49.929Z,6.73
2018-02-18T14:23:17.387Z,7.60
2018-02-18T14:25:44.870Z,6.50
2018-02-18T14:28:12.358Z,6.50
2018-02-18T14:30:39.830Z,6.60
2018-02-18T14:33:08.098Z,7.50
2018-02-18T14:35:35.600Z,7.30
2018-02-18T14:38:03.098Z,6.90
2018-02-18T14:40:30.584Z,7.77
2018-02-18T14:46:14.812Z,7.23
2018-02-18T14:48:54.266Z,7.00
2018-02-18T14:51:33.763Z,8.00
2018-02-18T14:54:13.047Z,8.43
2018-02-18T14:56:52.517Z,9.90
2018-02-18T14:59:20.748Z,9.00
2018-02-18T15:01:48.240Z,10.00
2018-02-18T15:04:15.849Z,8.40
2018-02-18T15:06:43.334Z,10.50
2018-02-18T15:09:10.808Z,9.90
2018-02-18T15:11:38.296Z,9.53
2018-02-18T15:14:06.527Z,11.00
2018-02-18T15:16:34.035Z,9.83
2018-02-18T15:19:02.255Z,9.30
2018-02-18T15:21:29.726Z,9.37
2018-02-18T15:23:57.207Z,9.80
2018-02-18T15:26:24.683Z,9.70
2018-02-18T15:28:52.916Z,9.50
2018-02-18T15:31:20.414Z,10.00
2018-02-18T15:33:48.648Z,8.73
2018-02-18T15:36:16.136Z,9.00
2018-02-18T15:38:43.596Z,6.93
2018-02-18T15:41:11.868Z,8.77
2018-02-18T15:43:39.397Z,8.97
2018-02-18T15:46:06.875Z,9.00
2018-02-18T15:48:34.349Z,8.83
2018-02-18T15:51:01.812Z,8.80
2018-02-18T15:53:30.042Z,9.83
2018-02-18T15:55:57.655Z,10.53
2018-02-18T15:58:25.894Z,10.90
2018-02-18T16:00:53.355Z,9.87
2018-02-18T16:03:20.861Z,11.53
2018-02-18T16:05:48.375Z,10.23
2018-02-18T16:08:15.814Z,9.80
2018-02-18T16:10:43.287Z,9.83
2018-02-18T16:13:10.759Z,9.70
2018-02-18T16:15:38.252Z,11.43
2018-02-18T16:18:05.737Z,10.23
2018-02-18T16:20:33.234Z,10.30
2018-02-18T16:23:00.722Z,10.47
2018-02-18T16:25:28.964Z,11.80
2018-02-18T16:27:56.451Z,11.53
2018-02-18T16:30:24.686Z,9.97
2018-02-18T16:32:52.158Z,9.00
2018-02-18T16:35:19.642Z,8.67
2018-02-18T16:37:47.878Z,9.33
2018-02-18T16:40:15.347Z,9.10
2018-02-18T16:42:42.818Z,8.80
2018-02-18T16:45:10.286Z,8.80
2018-02-18T16:47:38.536Z,10.53
2018-02-18T16:50:06.763Z,8.83
2018-02-18T16:52:34.243Z,9.63
2018-02-18T16:55:01.716Z,9.53
2018-02-18T16:57:29.244Z,10.53
2018-02-18T16:59:56.666Z,11.00
2018-02-18T17:02:24.144Z,10.40
2018-02-18T17:04:52.381Z,9.87
2018-02-18T17:07:19.871Z,10.07
2018-02-18T17:09:48.116Z,9.83
2018-02-18T17:12:15.586Z,10.23
2018-02-18T17:14:43.834Z,11.27
2018-02-18T17:17:13.323Z,10.30
2018-02-18T17:19:40.788Z,11.67
2018-02-18T17:22:08.288Z,10.80
2018-02-18T17:24:35.747Z,11.60
2018-02-18T17:27:04.006Z,10.33
2018-02-18T17:29:31.485Z,10.20
2018-02-18T17:31:58.968Z,10.50
2018-02-18T17:34:26.440Z,11.00
2018-02-18T17:36:53.925Z,11.80
2018-02-18T17:39:21.496Z,10.93
2018-02-18T17:41:48.995Z,11.07
2018-02-18T17:44:17.249Z,10.13
2018-02-18T17:46:44.730Z,12.10
2018-02-18T17:49:12.982Z,11.37
2018-02-18T17:51:40.484Z,11.70
2018-02-18T17:54:07.958Z,10.87
2018-02-18T17:56:35.476Z,12.77
2018-02-18T17:59:03.724Z,11.30
2018-02-18T18:01:31.196Z,9.80
2018-02-18T18:03:58.685Z,11.30
2018-02-18T18:06:26.202Z,10.07
2018-02-18T18:08:53.693Z,10.90
2018-02-18T18:11:21.931Z,9.97
2018-02-18T18:13:49.423Z,10.50
2018-02-18T18:16:17.660Z,10.33
2018-02-18T18:18:45.164Z,12.63
2018-02-18T18:21:13.398Z,10.20
2018-02-18T18:23:40.881Z,10.20
2018-02-18T18:26:08.357Z,10.60
2018-02-18T18:28:36.607Z,10.00
2018-02-18T18:31:04.096Z,11.97
2018-02-18T18:33:31.570Z,11.13
2018-02-18T18:35:59.045Z,13.30
2018-02-18T18:38:26.596Z,10.47
2018-02-18T18:40:54.084Z,11.83
2018-02-18T18:43:21.563Z,11.70
2018-02-18T18:45:49.036Z,10.30
2018-02-18T18:48:17.274Z,11.67
2018-02-18T18:50:44.796Z,12.43
2018-02-18T18:53:13.156Z,11.43
2018-02-18T18:55:41.394Z,11.13
2018-02-18T18:58:08.859Z,10.30
2018-02-18T19:00:36.338Z,10.23
2018-02-18T19:03:03.865Z,10.73
2018-02-18T19:05:31.349Z,11.03
2018-02-18T19:07:58.901Z,11.70
2018-02-18T19:10:26.376Z,12.07
2018-02-18T19:12:54.622Z,11.93
2018-02-18T19:15:22.124Z,10.77
2018-02-18T19:17:50.368Z,11.60
2018-02-18T19:20:17.834Z,11.57
2018-02-18T19:22:45.347Z,12.30
2018-02-18T19:25:12.814Z,11.87
2018-02-18T19:27:40.295Z,11.70
2018-02-18T19:30:07.762Z,11.57
2018-02-18T19:32:35.261Z,11.50
2018-02-18T19:35:02.745Z,11.60
2018-02-18T19:37:30.215Z,11.80
2018-02-18T19:39:57.678Z,12.90
2018-02-18T19:42:25.165Z,11.43
2018-02-18T19:44:52.645Z,12.50
2018-02-18T19:47:20.913Z,11.53
2018-02-18T19:49:49.152Z,11.70
2018-02-18T19:52:16.687Z,11.50
2018-02-18T19:54:47.040Z,13.00
2018-02-18T19:57:14.533Z,11.70
2018-02-18T19:59:42.035Z,13.80
2018-02-18T20:02:09.524Z,13.00
2018-02-18T20:04:37.007Z,14.67
2018-02-18T20:07:05.263Z,13.33
2018-02-18T20:09:32.837Z,14.30
2018-02-18T20:12:01.076Z,13.93
2018-02-18T20:14:28.556Z,13.73
2018-02-18T20:16:56.055Z,13.03
2018-02-18T20:19:23.577Z,12.97
2018-02-18T20:21:51.058Z,12.43
2018-02-18T20:24:19.300Z,13.00
2018-02-18T20:26:46.787Z,13.60
2018-02-18T20:29:15.062Z,12.30
2018-02-18T20:31:43.304Z,11.63
2018-02-18T20:34:10.813Z,12.50
2018-02-18T20:36:38.275Z,12.80
2018-02-18T20:39:05.752Z,13.27
2018-02-18T20:41:33.231Z,12.50
2018-02-18T20:44:00.712Z,12.13
2018-02-18T20:46:28.178Z,12.13
2018-02-18T20:48:55.655Z,10.90
2018-02-18T20:51:23.893Z,11.50
2018-02-18T20:53:51.375Z,11.97
2018-02-18T20:56:19.616Z,11.60
2018-02-18T20:58:47.104Z,11.63
2018-02-18T21:01:14.577Z,11.57
2018-02-18T21:03:42.827Z,12.30
2018-02-18T21:06:10.295Z,12.27
2018-02-18T21:08:37.776Z,14.10
2018-02-18T21:11:06.016Z,12.30
2018-02-18T21:13:33.519Z,13.07
2018-02-18T21:16:00.995Z,14.47
2018-02-18T21:18:28.512Z,12.67
2018-02-18T21:20:55.981Z,14.10
2018-02-18T21:23:24.235Z,15.17
2018-02-18T21:25:51.712Z,13.73
2018-02-18T21:28:19.954Z,13.23
2018-02-18T21:30:47.432Z,14.03
2018-02-18T21:33:14.904Z,13.13
2018-02-18T21:35:43.151Z,12.50
2018-02-18T21:38:10.631Z,12.43
2018-02-18T21:40:38.869Z,12.87
2018-02-18T21:43:06.446Z,12.50
2018-02-18T21:45:33.919Z,13.00
2018-02-18T21:48:01.393Z,13.53
2018-02-18T21:50:29.638Z,14.13
2018-02-18T21:52:57.114Z,13.90
2018-02-18T21:55:24.594Z,12.77
2018-02-18T21:57:52.073Z,12.37
2018-02-18T22:00:19.584Z,12.63
2018-02-18T22:02:47.316Z,13.60
2018-02-18T22:05:14.793Z,11.90
2018-02-18T22:07:42.258Z,13.63
2018-02-18T22:10:09.732Z,13.13
2018-02-18T22:12:37.970Z,14.37
2018-02-18T22:15:05.451Z,13.00
2018-02-18T22:17:32.923Z,14.00
2018-02-18T22:20:01.170Z,14.30
2018-02-18T22:22:28.670Z,14.23
2018-02-18T22:24:56.126Z,12.70
2018-02-18T22:27:24.366Z,13.80
2018-02-18T22:29:51.884Z,14.53
2018-02-18T22:32:19.365Z,13.00
2018-02-18T22:34:46.852Z,13.90
2018-02-18T22:37:14.318Z,15.70
2018-02-18T22:39:41.814Z,14.90
2018-02-18T22:42:09.294Z,14.90
2018-02-18T22:44:36.767Z,15.47
2018-02-18T22:47:04.243Z,16.10
2018-02-18T22:49:31.711Z,15.40
2018-02-18T22:51:59.968Z,15.40
2018-02-18T22:54:27.456Z,14.23
2018-02-18T22:56:55.697Z,17.10
2018-02-18T22:59:23.159Z,16.27
2018-02-18T23:01:50.630Z,17.00
2018-02-18T23:04:18.120Z,14.20
2018-02-18T23:06:45.597Z,14.60
2018-02-18T23:09:13.070Z,14.83
2018-02-18T23:11:40.548Z,14.27
2018-02-18T23:14:08.042Z,15.50
2018-02-18T23:16:36.302Z,16.43
2018-02-18T23:19:03.796Z,15.13
2018-02-18T23:21:31.272Z,15.67
2018-02-18T23:23:58.749Z,16.63
2018-02-18T23:26:26.227Z,15.17
2018-02-18T23:28:53.716Z,14.97
2018-02-18T23:31:21.960Z,15.27
2018-02-18T23:33:49.435Z,14.30
2018-02-18T23:36:16.917Z,15.57
2018-02-18T23:38:44.406Z,16.10
2018-02-18T23:41:11.871Z,16.53
2018-02-18T23:43:39.714Z,16.40
2018-02-18T23:46:07.187Z,19.93
2018-02-18T23:48:34.671Z,19.20
2018-02-18T23:51:02.141Z,17.07
2018-02-18T23:53:29.610Z,17.97
2018-02-18T23:55:57.855Z,16.00
2018-02-18T23:58:25.336Z,17.17
